sensor_id;sensor_type;location;lat;lon;timestamp;P1;durP1;ratioP1;P2;durP2;ratioP2
78290;SDS011;67543;45.494;9.100;2023-05-23T05:58:04;11.93;;;8.95;;
78290;SDS011;67543;45.494;9.100;2023-05-23T06:00:30;11.25;;;8.55;;
78290;SDS011;67543;45.494;9.100;2023-05-23T06:02:56;10.48;;;7.85;;
78290;SDS011;67543;45.494;9.100;2023-05-23T06:05:21;9.57;;;7.15;;
78290;SDS011;67543;45.494;9.100;2023-05-23T06:07:47;11.57;;;8.40;;
78290;SDS011;67543;45.494;9.100;2023-05-23T06:10:14;16.25;;;9.05;;
78290;SDS011;67543;45.494;9.100;2023-05-23T06:12:40;12.02;;;8.20;;
78290;SDS011;67543;45.494;9.100;2023-05-23T06:15:05;13.93;;;8.30;;
78290;SDS011;67543;45.494;9.100;2023-05-23T06:17:31;11.57;;;8.93;;
78290;SDS011;67543;45.494;9.100;2023-05-23T06:19:57;10.30;;;8.35;;
78290;SDS011;67543;45.494;9.100;2023-05-23T06:22:22;11.20;;;8.82;;
78290;SDS011;67543;45.494;9.100;2023-05-23T06:24:47;15.55;;;10.30;;
78290;SDS011;67543;45.494;9.100;2023-05-23T06:27:13;14.70;;;10.70;;
78290;SDS011;67543;45.494;9.100;2023-05-23T06:29:38;13.05;;;9.43;;
78290;SDS011;67543;45.494;9.100;2023-05-23T06:32:04;12.55;;;10.15;;
78290;SDS011;67543;45.494;9.100;2023-05-23T06:34:30;12.77;;;9.65;;
78290;SDS011;67543;45.494;9.100;2023-05-23T06:36:55;13.52;;;10.98;;
78290;SDS011;67543;45.494;9.100;2023-05-23T06:39:21;19.00;;;10.57;;
78290;SDS011;67543;45.494;9.100;2023-05-23T06:41:46;14.07;;;10.23;;
78290;SDS011;67543;45.494;9.100;2023-05-23T06:44:12;12.90;;;10.18;;
78290;SDS011;67543;45.494;9.100;2023-05-23T06:46:37;14.80;;;11.50;;
78290;SDS011;67543;45.494;9.100;2023-05-23T06:49:03;12.52;;;9.43;;
78290;SDS011;67543;45.494;9.100;2023-05-23T06:51:28;16.45;;;10.57;;
78290;SDS011;67543;45.494;9.100;2023-05-23T06:53:53;14.50;;;10.43;;
78290;SDS011;67543;45.494;9.100;2023-05-23T06:56:21;14.73;;;10.52;;
78290;SDS011;67543;45.494;9.100;2023-05-23T06:58:47;13.35;;;10.10;;
78290;SDS011;67543;45.494;9.100;2023-05-23T07:01:12;14.35;;;11.05;;
78290;SDS011;67543;45.494;9.100;2023-05-23T07:03:37;14.05;;;10.70;;
78290;SDS011;67543;45.494;9.100;2023-05-23T07:06:05;15.70;;;11.27;;
78290;SDS011;67543;45.494;9.100;2023-05-23T07:08:31;14.27;;;11.15;;
78290;SDS011;67543;45.494;9.100;2023-05-23T07:10:57;20.90;;;10.82;;
78290;SDS011;67543;45.494;9.100;2023-05-23T07:13:22;11.82;;;10.60;;
78290;SDS011;67543;45.494;9.100;2023-05-23T07:15:47;13.82;;;11.65;;
78290;SDS011;67543;45.494;9.100;2023-05-23T07:18:13;13.57;;;9.35;;
78290;SDS011;67543;45.494;9.100;2023-05-23T07:20:38;13.25;;;9.38;;
78290;SDS011;67543;45.494;9.100;2023-05-23T07:23:04;13.88;;;10.35;;
78290;SDS011;67543;45.494;9.100;2023-05-23T07:25:29;14.55;;;10.15;;
78290;SDS011;67543;45.494;9.100;2023-05-23T07:27:54;16.67;;;11.35;;
78290;SDS011;67543;45.494;9.100;2023-05-23T07:30:20;14.55;;;9.30;;
78290;SDS011;67543;45.494;9.100;2023-05-23T07:32:46;13.27;;;10.35;;
78290;SDS011;67543;45.494;9.100;2023-05-23T07:35:12;13.07;;;9.20;;
78290;SDS011;67543;45.494;9.100;2023-05-23T20:34:41;5.68;;;3.50;;
78290;SDS011;67543;45.494;9.100;2023-05-23T20:37:06;5.22;;;3.50;;
78290;SDS011;67543;45.494;9.100;2023-05-23T20:39:31;5.43;;;3.22;;
78290;SDS011;67543;45.494;9.100;2023-05-23T20:41:59;6.22;;;3.30;;
78290;SDS011;67543;45.494;9.100;2023-05-23T20:44:25;6.28;;;3.70;;
78290;SDS011;67543;45.494;9.100;2023-05-23T20:46:50;5.35;;;3.40;;
78290;SDS011;67543;45.494;9.100;2023-05-23T20:49:16;5.78;;;3.80;;
78290;SDS011;67543;45.494;9.100;2023-05-23T20:51:41;5.90;;;3.67;;
78290;SDS011;67543;45.494;9.100;2023-05-23T20:54:07;4.93;;;3.38;;
78290;SDS011;67543;45.494;9.100;2023-05-23T20:56:33;4.38;;;3.78;;
78290;SDS011;67543;45.494;9.100;2023-05-23T20:58:59;5.65;;;3.42;;
78290;SDS011;67543;45.494;9.100;2023-05-23T21:01:25;5.85;;;3.42;;
78290;SDS011;67543;45.494;9.100;2023-05-23T21:03:51;6.63;;;3.47;;
78290;SDS011;67543;45.494;9.100;2023-05-23T21:06:17;5.53;;;3.53;;
78290;SDS011;67543;45.494;9.100;2023-05-23T21:08:42;4.60;;;3.28;;
78290;SDS011;67543;45.494;9.100;2023-05-23T21:11:07;4.53;;;3.90;;
78290;SDS011;67543;45.494;9.100;2023-05-23T21:13:33;6.22;;;3.80;;
78290;SDS011;67543;45.494;9.100;2023-05-23T21:15:58;4.32;;;3.55;;
78290;SDS011;67543;45.494;9.100;2023-05-23T21:18:23;4.18;;;3.30;;
78290;SDS011;67543;45.494;9.100;2023-05-23T21:20:49;5.82;;;3.38;;
78290;SDS011;67543;45.494;9.100;2023-05-23T21:23:14;7.13;;;3.92;;
78290;SDS011;67543;45.494;9.100;2023-05-23T21:25:40;6.22;;;3.55;;
78290;SDS011;67543;45.494;9.100;2023-05-23T21:28:05;5.72;;;3.72;;
78290;SDS011;67543;45.494;9.100;2023-05-23T21:30:30;5.43;;;3.70;;
78290;SDS011;67543;45.494;9.100;2023-05-23T21:32:56;4.38;;;3.55;;
78290;SDS011;67543;45.494;9.100;2023-05-23T21:35:21;7.60;;;3.60;;
78290;SDS011;67543;45.494;9.100;2023-05-23T21:37:47;5.25;;;4.10;;
78290;SDS011;67543;45.494;9.100;2023-05-23T21:40:12;5.72;;;3.88;;
78290;SDS011;67543;45.494;9.100;2023-05-23T21:42:37;5.47;;;3.55;;
78290;SDS011;67543;45.494;9.100;2023-05-23T21:45:08;4.85;;;3.50;;
78290;SDS011;67543;45.494;9.100;2023-05-23T21:47:37;6.40;;;3.75;;
78290;SDS011;67543;45.494;9.100;2023-05-23T21:50:02;7.15;;;3.75;;
78290;SDS011;67543;45.494;9.100;2023-05-23T21:52:31;5.35;;;3.53;;
78290;SDS011;67543;45.494;9.100;2023-05-23T21:54:56;6.40;;;3.90;;
78290;SDS011;67543;45.494;9.100;2023-05-23T21:57:22;5.00;;;3.83;;
78290;SDS011;67543;45.494;9.100;2023-05-23T21:59:47;6.13;;;3.70;;
78290;SDS011;67543;45.494;9.100;2023-05-23T22:02:13;6.85;;;3.38;;
78290;SDS011;67543;45.494;9.100;2023-05-23T22:04:39;6.93;;;3.30;;
78290;SDS011;67543;45.494;9.100;2023-05-23T22:07:04;5.43;;;3.47;;
78290;SDS011;67543;45.494;9.100;2023-05-23T22:09:30;4.57;;;3.20;;
78290;SDS011;67543;45.494;9.100;2023-05-23T22:11:55;7.22;;;3.78;;
78290;SDS011;67543;45.494;9.100;2023-05-23T22:14:21;8.18;;;4.47;;
78290;SDS011;67543;45.494;9.100;2023-05-23T22:16:47;6.85;;;3.50;;
78290;SDS011;67543;45.494;9.100;2023-05-23T22:19:13;5.00;;;3.90;;
78290;SDS011;67543;45.494;9.100;2023-05-23T22:21:41;6.13;;;3.72;;
78290;SDS011;67543;45.494;9.100;2023-05-23T22:24:09;6.88;;;4.05;;
78290;SDS011;67543;45.494;9.100;2023-05-23T22:26:35;5.53;;;3.88;;
78290;SDS011;67543;45.494;9.100;2023-05-23T22:29:01;4.93;;;3.47;;
78290;SDS011;67543;45.494;9.100;2023-05-23T22:31:27;5.40;;;3.95;;
78290;SDS011;67543;45.494;9.100;2023-05-23T22:33:52;6.32;;;4.03;;
